Time;durP1;ratioP1;P1;durP2;ratioP2;P2;SDS_P1;SDS_P2;PMS_P1;PMS_P2;Temp;Humidity;BMP_temperature;BMP_pressure;BME280_temperature;BME280_humidity;BME280_pressure;Samples;Min_cycle;Max_cycle;Signal;HPM_P1;HPM_P2
2022/01/19 00:01:15;;;;;;;43.60;20.88;;;;;;;4.02;100.00;103122.28;4969451;28;20035;-76
2022/01/19 00:03:41;;;;;;;45.30;21.00;;;;;;;3.93;100.00;103109.56;4968829;28;20057;-77
2022/01/19 00:06:07;;;;;;;44.63;21.15;;;;;;;4.03;100.00;103115.34;4957218;28;20482;-77
2022/01/19 00:08:33;;;;;;;37.65;19.38;;;;;;;4.01;100.00;103110.22;4971450;28;20035;-77
2022/01/19 00:10:58;;;;;;;41.72;20.38;;;;;;;4.00;100.00;103105.91;4939665;28;20041;-78
2022/01/19 00:13:25;;;;;;;41.30;19.75;;;;;;;4.03;100.00;103098.03;4953648;28;20066;-76
2022/01/19 00:15:51;;;;;;;38.65;20.30;;;;;;;3.98;100.00;103091.28;4967350;28;20030;-76
2022/01/19 00:18:19;;;;;;;36.40;19.02;;;;;;;4.00;100.00;103092.91;4972302;28;20031;-77
2022/01/19 00:20:46;;;;;;;41.13;18.85;;;;;;;3.92;100.00;103105.28;4957917;28;20040;-76
2022/01/19 00:23:15;;;;;;;36.45;18.20;;;;;;;4.02;100.00;103111.91;4962209;28;20041;-76
2022/01/19 00:25:42;;;;;;;36.55;19.08;;;;;;;3.93;100.00;103104.38;4956157;28;20034;-77
2022/01/19 00:28:09;;;;;;;34.95;17.55;;;;;;;3.92;100.00;103105.28;4946811;28;20074;-78
2022/01/19 00:30:34;;;;;;;34.95;18.27;;;;;;;3.88;100.00;103106.25;4954433;28;20631;-77
2022/01/19 00:33:01;;;;;;;35.97;18.00;;;;;;;3.87;100.00;103102.81;4983642;28;20153;-78
2022/01/19 00:35:27;;;;;;;35.13;18.02;;;;;;;3.80;100.00;103090.06;4960121;28;20038;-79
2022/01/19 00:37:53;;;;;;;32.85;18.90;;;;;;;3.73;100.00;103084.22;4977685;28;20030;-76
2022/01/19 00:40:18;;;;;;;34.03;18.98;;;;;;;3.67;100.00;103071.41;4958021;28;20566;-78
2022/01/19 00:42:45;;;;;;;32.67;18.35;;;;;;;3.81;100.00;103077.03;4961247;28;20039;-76
2022/01/19 00:45:12;;;;;;;37.38;18.77;;;;;;;3.74;100.00;103079.88;4958109;28;20050;-79
2022/01/19 00:47:38;;;;;;;43.50;19.35;;;;;;;3.68;100.00;103071.34;4960485;28;20477;-77
2022/01/19 00:50:06;;;;;;;38.70;18.77;;;;;;;3.72;100.00;103074.72;4958005;28;20058;-76
2022/01/19 00:52:31;;;;;;;32.45;17.80;;;;;;;3.68;100.00;103067.91;4959342;28;20043;-78
2022/01/19 00:54:57;;;;;;;35.88;18.85;;;;;;;3.62;100.00;103071.53;4959490;28;20034;-77
2022/01/19 00:57:23;;;;;;;36.15;19.77;;;;;;;3.57;100.00;103044.88;4958063;28;20654;-77
2022/01/19 00:59:50;;;;;;;36.22;19.20;;;;;;;3.65;100.00;103071.44;4971469;28;20038;-77
2022/01/19 01:02:16;;;;;;;35.53;18.33;;;;;;;3.60;100.00;103075.06;4960606;28;20228;-78
2022/01/19 01:04:42;;;;;;;35.80;19.20;;;;;;;3.65;100.00;103078.38;4962413;28;20098;-78
2022/01/19 01:07:07;;;;;;;36.08;19.02;;;;;;;3.69;100.00;103073.06;4955767;28;20058;-78
2022/01/19 01:09:33;;;;;;;38.95;20.33;;;;;;;3.76;100.00;103080.66;4942697;28;20736;-78
2022/01/19 01:12:10;;;;;;;37.50;19.13;;;;;;;3.68;100.00;103073.94;4972677;28;20466;-78
2022/01/19 01:20:08;;;;;;;35.17;19.58;;;;;;;3.57;100.00;103051.81;4972390;28;20051;-79
2022/01/19 01:22:34;;;;;;;45.17;20.00;;;;;;;3.59;100.00;103048.25;4951256;28;20410;-78
2022/01/19 01:25:00;;;;;;;41.20;20.40;;;;;;;3.58;100.00;103050.91;4949013;28;20023;-78
2022/01/19 01:27:26;;;;;;;38.60;21.05;;;;;;;3.56;100.00;103039.72;4977849;28;20026;-78
2022/01/19 01:29:52;;;;;;;40.70;19.67;;;;;;;3.51;100.00;103032.06;4959628;28;20053;-78
2022/01/19 01:32:17;;;;;;;42.72;20.13;;;;;;;3.55;100.00;103033.69;4957665;28;20101;-78
2022/01/19 01:34:43;;;;;;;37.35;20.58;;;;;;;3.53;100.00;103014.72;4967579;28;20783;-79
2022/01/19 01:37:09;;;;;;;40.15;20.20;;;;;;;3.47;100.00;102997.56;4971482;28;20122;-78
2022/01/19 01:39:35;;;;;;;40.10;19.85;;;;;;;3.47;100.00;102999.34;4956931;28;20494;-79
2022/01/19 01:42:00;;;;;;;37.42;20.67;;;;;;;3.47;100.00;102996.72;4952149;28;20050;-78
2022/01/19 01:44:37;;;;;;;39.33;19.42;;;;;;;3.50;100.00;102997.50;4950138;28;20039;-77
2022/01/19 01:47:03;;;;;;;39.65;19.95;;;;;;;3.46;100.00;102969.06;4968442;28;20110;-78
2022/01/19 01:49:45;;;;;;;36.20;20.25;;;;;;;3.47;100.00;102950.88;4959824;28;20038;-78
2022/01/19 01:54:58;;;;;;;39.15;19.35;;;;;;;3.45;100.00;102931.91;4983399;28;20039;-78
2022/01/19 01:57:24;;;;;;;37.40;20.25;;;;;;;3.43;100.00;102915.53;4968124;28;20046;-78
2022/01/19 01:59:50;;;;;;;43.72;20.58;;;;;;;3.39;100.00;102913.94;4955335;28;20459;-78
2022/01/19 02:02:19;;;;;;;37.95;20.02;;;;;;;3.44;100.00;102922.41;4973921;28;20035;-78
2022/01/19 02:04:45;;;;;;;46.20;20.15;;;;;;;3.43;100.00;102914.69;4959093;28;20037;-78
2022/01/19 02:07:40;;;;;;;43.17;19.75;;;;;;;3.45;100.00;102931.91;4956674;28;20090;-77
2022/01/19 02:10:15;;;;;;;40.42;19.63;;;;;;;3.47;100.00;102934.47;4953251;28;20033;-77
2022/01/19 02:24:30;;;;;;;42.10;19.95;;;;;;;3.37;100.00;102884.59;4916871;29;20031;-76
2022/01/19 02:40:24;;;;;;;41.67;18.23;;;;;;;3.24;100.00;102834.84;4982444;28;20045;-77
2022/01/19 02:51:04;;;;;;;39.03;18.50;;;;;;;3.18;100.00;102808.25;4968139;28;20031;-76
2022/01/19 02:53:35;;;;;;;39.70;18.10;;;;;;;3.15;100.00;102798.81;4970512;28;20046;-76
2022/01/19 02:56:07;;;;;;;43.75;17.73;;;;;;;3.09;100.00;102770.50;4955129;28;20034;-76
2022/01/19 02:58:43;;;;;;;38.63;16.85;;;;;;;3.17;100.00;102780.63;4955714;28;20046;-76
2022/01/19 03:09:10;;;;;;;42.75;16.65;;;;;;;3.05;100.00;102741.22;4941968;28;20031;-75
2022/01/19 03:11:36;;;;;;;40.95;18.05;;;;;;;3.01;100.00;102743.94;4944459;29;20042;-75
2022/01/19 03:14:04;;;;;;;38.10;16.13;;;;;;;3.02;100.00;102730.09;4943167;28;20035;-75
2022/01/19 03:16:30;;;;;;;47.30;17.33;;;;;;;2.97;100.00;102711.25;4956187;28;20066;-77
2022/01/19 03:18:55;;;;;;;40.97;16.27;;;;;;;2.87;100.00;102708.09;4965855;28;20038;-76
2022/01/19 03:21:21;;;;;;;46.40;16.50;;;;;;;2.89;100.00;102714.91;4967842;28;20038;-76
2022/01/19 03:23:47;;;;;;;39.95;16.10;;;;;;;2.91;100.00;102720.91;4952144;28;20678;-77
2022/01/19 03:26:13;;;;;;;43.03;16.77;;;;;;;2.89;100.00;102714.91;4968404;28;20035;-75
2022/01/19 03:29:07;;;;;;;44.95;16.33;;;;;;;3.03;100.00;102711.91;4968149;28;20133;-76
2022/01/19 03:31:33;;;;;;;44.92;17.13;;;;;;;2.97;100.00;102706.06;4950912;28;20171;-76
2022/01/19 03:33:59;;;;;;;44.95;16.15;;;;;;;2.98;100.00;102705.16;4931978;28;20450;-75
2022/01/19 03:36:25;;;;;;;42.40;16.63;;;;;;;2.99;100.00;102705.09;4949659;28;20089;-75
2022/01/19 03:38:51;;;;;;;48.33;18.00;;;;;;;2.93;100.00;102680.22;4950386;28;20494;-76
2022/01/19 03:41:16;;;;;;;44.95;17.63;;;;;;;2.92;100.00;102675.94;4942204;28;20433;-76
2022/01/19 03:43:42;;;;;;;46.10;17.52;;;;;;;2.93;100.00;102666.41;4968058;28;20137;-76
2022/01/19 03:46:16;;;;;;;41.38;16.40;;;;;;;2.98;100.00;102668.88;4941258;28;20039;-76
2022/01/19 03:48:51;;;;;;;37.45;16.63;;;;;;;2.92;100.00;102670.75;4981814;28;20039;-76
2022/01/19 03:51:17;;;;;;;35.22;15.10;;;;;;;2.91;100.00;102676.00;4935233;28;20031;-76
2022/01/19 03:53:43;;;;;;;46.45;16.55;;;;;;;2.92;100.00;102669.91;4971243;28;20037;-76
2022/01/19 03:56:09;;;;;;;44.60;16.63;;;;;;;2.92;100.00;102652.63;4962712;28;20035;-75
2022/01/19 03:58:36;;;;;;;40.47;16.30;;;;;;;2.90;100.00;102651.81;4963553;28;20043;-76
2022/01/19 04:01:04;;;;;;;39.45;16.17;;;;;;;2.84;100.00;102648.56;4967654;28;20042;-76
2022/01/19 04:04:02;;;;;;;40.05;16.63;;;;;;;2.76;100.00;102637.63;4979837;28;20034;-76
2022/01/19 04:06:28;;;;;;;40.65;15.85;;;;;;;2.89;100.00;102649.28;4952978;28;20044;-76
2022/01/19 04:08:55;;;;;;;37.08;14.95;;;;;;;2.98;100.00;102648.13;4972696;28;20066;-76
2022/01/19 04:11:22;;;;;;;40.30;16.85;;;;;;;2.92;100.00;102636.22;4974879;28;20121;-75
2022/01/19 04:16:31;;;;;;;38.72;15.57;;;;;;;2.90;100.00;102622.44;4985721;28;20039;-76
2022/01/19 04:19:18;;;;;;;45.50;16.33;;;;;;;2.90;100.00;102625.91;4985911;28;20066;-77
2022/01/19 04:21:45;;;;;;;42.60;15.27;;;;;;;2.89;100.00;102620.75;4969895;28;20130;-76
2022/01/19 04:24:11;;;;;;;44.55;15.57;;;;;;;2.89;100.00;102615.56;4943754;28;20512;-76
2022/01/19 04:26:37;;;;;;;39.78;15.05;;;;;;;2.88;100.00;102621.66;4970800;28;20058;-76
2022/01/19 04:29:03;;;;;;;39.35;15.10;;;;;;;2.90;100.00;102619.84;4967893;28;20125;-76
2022/01/19 04:31:29;;;;;;;40.47;14.85;;;;;;;2.81;100.00;102610.66;4973926;28;20039;-76
2022/01/19 04:33:59;;;;;;;37.55;15.75;;;;;;;2.83;100.00;102611.44;4968246;28;20118;-75
2022/01/19 04:36:33;;;;;;;39.58;15.40;;;;;;;2.80;100.00;102608.94;4954174;28;20150;-79
2022/01/19 05:03:43;;;;;;;36.28;15.38;;;;;;;2.77;100.00;102572.78;4968173;28;20479;-76
2022/01/19 05:06:21;;;;;;;33.83;15.57;;;;;;;2.75;100.00;102587.53;4979808;28;20031;-75
2022/01/19 05:09:10;;;;;;;34.92;15.65;;;;;;;2.71;100.00;102578.13;4952934;28;20074;-76
2022/01/19 05:14:20;;;;;;;37.10;14.82;;;;;;;2.69;100.00;102569.56;4969459;28;20035;-75
2022/01/19 05:16:45;;;;;;;38.85;15.10;;;;;;;2.80;100.00;102564.03;4972800;28;20162;-76
2022/01/19 05:19:12;;;;;;;37.78;15.93;;;;;;;2.75;100.00;102550.38;4970280;28;20070;-76
2022/01/19 05:21:41;;;;;;;41.13;16.58;;;;;;;2.74;100.00;102552.13;4954107;28;20043;-76
2022/01/19 05:24:20;;;;;;;39.40;16.05;;;;;;;2.73;100.00;102542.66;4967375;28;20521;-76
2022/01/19 05:27:08;;;;;;;43.60;16.38;;;;;;;2.83;100.00;102545.81;4971278;28;20039;-76
2022/01/19 05:29:35;;;;;;;42.97;15.93;;;;;;;2.79;100.00;102539.88;4952846;28;20046;-76
2022/01/19 05:32:00;;;;;;;36.90;16.77;;;;;;;2.78;100.00;102543.34;4970323;28;20063;-75
2022/01/19 05:34:26;;;;;;;45.72;17.27;;;;;;;2.78;100.00;102538.16;4967817;28;20066;-76
2022/01/19 05:37:00;;;;;;;39.70;17.38;;;;;;;2.73;100.00;102530.56;4982643;28;20042;-76
2022/01/19 05:39:49;;;;;;;37.63;17.05;;;;;;;2.75;100.00;102514.09;4936482;28;20047;-75
2022/01/19 05:42:20;;;;;;;41.15;17.17;;;;;;;2.67;100.00;102501.41;4967510;28;20509;-76
2022/01/19 05:44:47;;;;;;;41.00;16.13;;;;;;;2.69;100.00;102503.06;4963621;28;20622;-76
2022/01/19 05:47:14;;;;;;;36.55;17.38;;;;;;;2.73;100.00;102504.66;4951203;28;20284;-76
2022/01/19 05:49:43;;;;;;;43.45;17.50;;;;;;;2.77;100.00;102495.03;4986548;28;20045;-76
2022/01/19 05:52:10;;;;;;;47.38;17.48;;;;;;;2.74;100.00;102489.94;4970653;28;20035;-76
2022/01/19 05:54:36;;;;;;;42.58;18.85;;;;;;;2.77;100.00;102483.78;4987562;28;20039;-76
2022/01/19 05:57:02;;;;;;;44.83;19.13;;;;;;;2.78;100.00;102488.94;4979206;28;20035;-75
2022/01/19 05:59:33;;;;;;;51.58;20.05;;;;;;;2.79;100.00;102479.41;4948356;28;20039;-76
2022/01/19 06:01:59;;;;;;;57.08;20.85;;;;;;;2.83;100.00;102478.44;4952775;28;20137;-75
2022/01/19 06:04:25;;;;;;;52.95;21.08;;;;;;;2.82;100.00;102463.75;4954894;28;20545;-76
2022/01/19 06:07:09;;;;;;;65.38;24.08;;;;;;;2.82;100.00;102459.41;4981884;28;20130;-76
2022/01/19 06:10:02;;;;;;;57.25;22.75;;;;;;;2.80;100.00;102456.03;4974506;28;20046;-76
2022/01/19 06:12:33;;;;;;;57.58;24.63;;;;;;;2.81;100.00;102457.75;4973738;28;20077;-77
2022/01/19 06:14:59;;;;;;;62.80;26.73;;;;;;;2.92;100.00;102462.56;4958825;28;20062;-75
2022/01/19 06:17:24;;;;;;;67.25;26.50;;;;;;;2.85;100.00;102442.94;4971184;28;20034;-76
2022/01/19 06:19:50;;;;;;;74.72;28.88;;;;;;;2.81;100.00;102438.75;4955484;28;20489;-76
2022/01/19 06:22:17;;;;;;;76.68;29.42;;;;;;;2.96;100.00;102435.59;4967888;28;20050;-77
2022/01/19 06:24:44;;;;;;;77.47;29.77;;;;;;;2.98;100.00;102432.97;4958618;28;20035;-76
2022/01/19 06:27:10;;;;;;;82.50;31.20;;;;;;;2.94;100.00;102429.63;4947843;28;20039;-76
2022/01/19 06:29:37;;;;;;;80.18;32.00;;;;;;;3.02;100.00;102422.41;4963045;28;20035;-76
2022/01/19 06:32:03;;;;;;;88.57;32.00;;;;;;;2.98;100.00;102412.22;4966240;28;20027;-76
2022/01/19 06:34:29;;;;;;;78.40;31.65;;;;;;;3.00;100.00;102424.22;4972902;28;20035;-76
2022/01/19 06:37:14;;;;;;;83.53;32.53;;;;;;;3.04;100.00;102424.97;4983900;28;20049;-77
2022/01/19 06:39:44;;;;;;;79.80;30.33;;;;;;;3.10;100.00;102416.94;4935070;29;20098;-75
2022/01/19 06:42:10;;;;;;;83.65;30.65;;;;;;;3.04;100.00;102402.47;4979312;28;20039;-76
2022/01/19 06:44:37;;;;;;;74.13;29.35;;;;;;;3.11;100.00;102403.09;4970874;28;20088;-74
2022/01/19 06:47:03;;;;;;;72.78;28.27;;;;;;;3.11;100.00;102400.50;4964412;28;20034;-76
2022/01/19 06:49:29;;;;;;;65.85;26.35;;;;;;;3.14;100.00;102400.38;4949732;28;20039;-76
2022/01/19 06:51:56;;;;;;;66.18;25.88;;;;;;;3.07;100.00;102397.19;4949255;28;20057;-76
2022/01/19 06:54:22;;;;;;;61.90;25.60;;;;;;;3.15;100.00;102406.41;4967381;28;20070;-76
2022/01/19 06:56:47;;;;;;;63.67;25.42;;;;;;;3.16;100.00;102395.13;4971579;28;20043;-76
2022/01/19 06:59:39;;;;;;;61.13;24.08;;;;;;;3.07;100.00;102385.94;4977637;28;20085;-76
2022/01/19 07:02:39;;;;;;;56.58;23.70;;;;;;;3.13;100.00;102390.91;4966277;28;20125;-77
2022/01/19 07:05:25;;;;;;;64.00;24.05;;;;;;;3.18;100.00;102398.50;4982357;28;20635;-77
2022/01/19 07:08:01;;;;;;;64.03;25.40;;;;;;;3.16;100.00;102388.19;4961902;28;20031;-76
2022/01/19 07:10:31;;;;;;;56.80;24.27;;;;;;;3.19;100.00;102382.91;4969422;28;20034;-76
2022/01/19 07:12:59;;;;;;;65.63;25.10;;;;;;;3.23;100.00;102376.69;4949037;28;20415;-76
2022/01/19 07:15:24;;;;;;;58.28;26.50;;;;;;;3.17;100.00;102379.50;4983110;28;20096;-76
2022/01/19 07:17:50;;;;;;;59.33;25.88;;;;;;;3.22;100.00;102382.78;4967371;28;20555;-76
2022/01/19 07:20:16;;;;;;;63.70;27.45;;;;;;;3.22;100.00;102374.13;4977387;28;20035;-75
2022/01/19 07:22:42;;;;;;;62.20;27.13;;;;;;;3.22;100.00;102372.41;4991368;28;20038;-76
2022/01/19 07:25:10;;;;;;;63.40;28.70;;;;;;;3.26;100.00;102367.97;4986158;28;20065;-76
2022/01/19 07:27:36;;;;;;;66.35;26.60;;;;;;;3.23;100.00;102355.94;4967953;28;20553;-76
2022/01/19 07:30:04;;;;;;;69.45;29.58;;;;;;;3.23;100.00;102345.56;4966203;28;20034;-75
2022/01/19 07:32:34;;;;;;;79.22;32.85;;;;;;;3.27;100.00;102351.47;4964440;28;20031;-76
2022/01/19 07:35:05;;;;;;;77.68;33.08;;;;;;;3.37;100.00;102349.34;4967971;28;20042;-76
2022/01/19 07:37:31;;;;;;;82.70;32.70;;;;;;;3.46;100.00;102336.88;4958435;28;20121;-78
2022/01/19 07:39:58;;;;;;;81.45;33.60;;;;;;;3.50;100.00;102333.25;4968239;28;20190;-76
2022/01/19 07:42:25;;;;;;;89.25;33.50;;;;;;;3.51;100.00;102324.56;4935946;28;20145;-76
2022/01/19 07:45:05;;;;;;;85.53;35.20;;;;;;;3.55;100.00;102332.22;4978268;28;20045;-77
2022/01/19 07:47:46;;;;;;;90.90;33.95;;;;;;;3.57;100.00;102327.81;4969609;28;20039;-76
2022/01/19 07:50:38;;;;;;;86.32;34.40;;;;;;;3.58;100.00;102319.97;4958142;28;20517;-77
2022/01/19 07:53:32;;;;;;;80.78;34.42;;;;;;;3.60;100.00;102312.97;4969649;28;20770;-76
2022/01/19 07:56:12;;;;;;;83.00;35.05;;;;;;;3.63;100.00;102310.22;4963391;28;20090;-76
2022/01/19 07:58:49;;;;;;;84.20;34.55;;;;;;;3.58;100.00;102303.53;4969277;28;20105;-77
2022/01/19 08:01:19;;;;;;;93.72;37.28;;;;;;;3.61;100.00;102295.66;4982383;28;20038;-76
2022/01/19 08:04:00;;;;;;;85.82;37.05;;;;;;;3.53;100.00;102293.38;4958803;28;20043;-76
2022/01/19 08:06:28;;;;;;;91.40;38.20;;;;;;;3.55;100.00;102288.13;4961552;28;20090;-76
2022/01/19 08:08:55;;;;;;;96.63;37.25;;;;;;;3.61;100.00;102295.66;4968906;28;20091;-77
2022/01/19 08:11:21;;;;;;;94.97;38.25;;;;;;;3.60;100.00;102287.03;4947365;28;20038;-76
2022/01/19 08:13:52;;;;;;;88.20;38.50;;;;;;;3.63;100.00;102286.03;4967203;28;20502;-76
2022/01/19 08:16:21;;;;;;;89.88;40.00;;;;;;;3.60;100.00;102288.75;4962462;28;20037;-76
2022/01/19 08:18:47;;;;;;;95.28;37.85;;;;;;;3.63;100.00;102273.91;4969447;28;20098;-75
2022/01/19 08:21:13;;;;;;;93.43;37.17;;;;;;;3.63;100.00;102278.25;4938905;28;20130;-76
2022/01/19 08:23:48;;;;;;;99.00;37.55;;;;;;;3.64;100.00;102267.00;4957866;28;20145;-76
2022/01/19 08:26:15;;;;;;;98.38;36.70;;;;;;;3.56;100.00;102261.25;4963771;28;20113;-77
2022/01/19 08:28:42;;;;;;;103.00;37.22;;;;;;;3.63;100.00;102268.72;4955692;28;20121;-76
2022/01/19 08:31:08;;;;;;;88.97;36.25;;;;;;;3.64;100.00;102261.78;4962888;28;20043;-77
2022/01/19 08:34:02;;;;;;;90.57;38.13;;;;;;;3.61;100.00;102260.16;4956692;28;20047;-76
2022/01/19 08:36:47;;;;;;;90.53;38.42;;;;;;;3.58;100.00;102260.31;4966998;28;20142;-77
2022/01/19 08:39:18;;;;;;;85.50;35.85;;;;;;;3.55;100.00;102244.84;4969393;28;20109;-76
2022/01/19 08:41:44;;;;;;;93.78;36.38;;;;;;;3.57;100.00;102242.19;4953538;28;20046;-77
2022/01/19 08:44:10;;;;;;;95.65;37.00;;;;;;;3.53;100.00;102248.44;4955084;28;20132;-76
2022/01/19 08:46:40;;;;;;;98.25;38.78;;;;;;;3.54;100.00;102235.38;4958868;28;20560;-76
2022/01/19 08:49:35;;;;;;;94.25;37.28;;;;;;;3.49;100.00;102232.97;4937068;28;20043;-77
2022/01/19 08:52:20;;;;;;;94.18;35.88;;;;;;;3.46;100.00;102221.88;4973221;28;20042;-77
2022/01/19 08:54:52;;;;;;;89.65;35.97;;;;;;;3.49;100.00;102225.19;4968043;28;20027;-76
2022/01/19 08:57:19;;;;;;;95.20;38.17;;;;;;;3.43;100.00;102214.25;4968778;28;20035;-76
2022/01/19 08:59:44;;;;;;;94.38;36.75;;;;;;;3.40;100.00;102210.00;4956837;28;20200;-77
2022/01/19 09:02:10;;;;;;;84.82;36.25;;;;;;;3.43;100.00;102202.13;4972978;28;20119;-76
2022/01/19 09:04:36;;;;;;;98.35;36.35;;;;;;;3.44;100.00;102206.38;4971336;28;20047;-76
2022/01/19 09:07:02;;;;;;;78.90;35.25;;;;;;;3.48;100.00;102194.13;4958223;28;20079;-76
2022/01/19 09:09:28;;;;;;;95.53;37.53;;;;;;;3.38;100.00;102183.28;4968394;28;20038;-76
2022/01/19 09:11:53;;;;;;;102.75;39.63;;;;;;;3.36;100.00;102177.34;4969252;28;20049;-76
2022/01/19 09:14:19;;;;;;;99.63;37.92;;;;;;;3.36;100.00;102184.28;4969348;28;20059;-75
2022/01/19 09:16:49;;;;;;;101.82;39.00;;;;;;;3.35;100.00;102175.63;4975061;28;20047;-76
2022/01/19 09:19:16;;;;;;;89.78;36.35;;;;;;;3.44;100.00;102177.00;4969488;28;20050;-75
2022/01/19 09:21:42;;;;;;;103.03;37.90;;;;;;;3.43;100.00;102176.16;4966802;28;20765;-78
2022/01/19 09:24:10;;;;;;;99.28;36.80;;;;;;;3.44;100.00;102177.00;4960012;28;20039;-75
2022/01/19 09:26:37;;;;;;;89.93;35.08;;;;;;;3.42;100.00;102161.50;4971266;28;20089;-77
2022/01/19 09:29:03;;;;;;;88.78;34.95;;;;;;;3.37;100.00;102163.47;4983014;28;20114;-77
2022/01/19 09:31:29;;;;;;;85.57;35.20;;;;;;;3.38;100.00;102162.53;4971267;28;20027;-76
2022/01/19 09:34:06;;;;;;;91.07;35.40;;;;;;;3.36;100.00;102159.19;4980008;28;20062;-77
2022/01/19 09:36:34;;;;;;;90.88;35.08;;;;;;;3.35;100.00;102156.66;4982834;28;20392;-76
2022/01/19 09:39:00;;;;;;;91.97;36.33;;;;;;;3.34;100.00;102150.63;4936200;28;20141;-76
2022/01/19 09:41:26;;;;;;;90.18;38.47;;;;;;;3.34;100.00;102145.44;4971339;28;20133;-76
2022/01/19 09:43:53;;;;;;;96.88;39.15;;;;;;;3.27;100.00;102150.03;4972051;28;20431;-75
2022/01/19 09:46:18;;;;;;;91.18;37.17;;;;;;;3.34;100.00;102152.38;4972657;28;20062;-76
2022/01/19 09:48:44;;;;;;;92.25;36.75;;;;;;;3.34;100.00;102136.81;4971581;28;20037;-76
2022/01/19 09:51:12;;;;;;;103.05;41.10;;;;;;;3.36;100.00;102138.44;4967987;28;20046;-75
2022/01/19 09:53:38;;;;;;;95.00;38.95;;;;;;;3.33;100.00;102122.97;4969961;28;20575;-76
2022/01/19 09:56:04;;;;;;;103.15;38.15;;;;;;;3.47;100.00;102127.59;4957584;28;20102;-76
2022/01/19 09:58:29;;;;;;;82.30;36.63;;;;;;;3.47;100.00;102125.84;4955147;28;20376;-76
2022/01/19 10:00:55;;;;;;;88.85;36.67;;;;;;;3.45;100.00;102112.09;4968784;28;20034;-76
2022/01/19 10:03:29;;;;;;;85.47;36.63;;;;;;;3.43;100.00;102100.94;4967592;28;20035;-75
2022/01/19 10:06:16;;;;;;;89.80;37.08;;;;;;;3.50;100.00;102102.38;4975961;28;20445;-76
2022/01/19 10:08:48;;;;;;;85.43;37.38;;;;;;;3.50;100.00;102097.19;4951545;28;20035;-76
2022/01/19 10:17:03;;;;;;;91.43;36.35;;;;;;;3.51;100.00;102083.28;4967257;28;20089;-77
2022/01/19 10:19:45;;;;;;;83.57;33.47;;;;;;;3.58;100.00;102073.50;4995912;28;20031;-76
2022/01/19 10:22:23;;;;;;;84.13;34.63;;;;;;;3.57;100.00;102076.16;4955610;28;20046;-77
2022/01/19 10:25:00;;;;;;;82.07;33.38;;;;;;;3.59;100.00;102071.72;4987605;28;20064;-77
2022/01/19 10:27:42;;;;;;;75.63;31.38;;;;;;;3.58;100.00;102057.91;4955597;28;20043;-77
2022/01/19 10:30:08;;;;;;;67.13;29.73;;;;;;;3.63;100.00;102063.72;4952595;28;20407;-76
2022/01/19 10:32:41;;;;;;;65.68;29.40;;;;;;;3.66;100.00;102055.81;4976317;28;20039;-75
2022/01/19 10:35:32;;;;;;;69.22;29.00;;;;;;;3.64;100.00;102049.03;4984577;28;20678;-76
2022/01/19 10:38:18;;;;;;;68.97;30.75;;;;;;;3.63;100.00;102040.38;4953790;28;20137;-76
2022/01/19 10:41:09;;;;;;;61.53;26.90;;;;;;;3.59;100.00;102032.81;4964966;28;20071;-76
2022/01/19 10:43:39;;;;;;;59.17;27.98;;;;;;;3.54;100.00;102034.75;4963968;28;20030;-75
2022/01/19 10:46:30;;;;;;;72.25;31.00;;;;;;;3.45;100.00;102023.06;4951998;28;20266;-76
2022/01/19 10:49:01;;;;;;;65.13;30.70;;;;;;;3.42;100.00;102034.41;4976132;28;20050;-76
2022/01/19 10:51:33;;;;;;;71.50;30.30;;;;;;;3.35;100.00;102022.59;4972093;28;20066;-75
2022/01/19 10:54:07;;;;;;;74.43;32.08;;;;;;;3.26;100.00;102010.06;4985390;28;20041;-76
2022/01/19 10:56:34;;;;;;;67.28;30.92;;;;;;;3.23;100.00;102013.63;4957913;28;20031;-75
2022/01/19 10:59:03;;;;;;;71.35;32.17;;;;;;;3.27;100.00;102012.56;4951928;28;20038;-78
2022/01/19 11:01:38;;;;;;;68.32;30.45;;;;;;;3.23;100.00;102005.84;4966497;28;20038;-77
2022/01/19 11:04:39;;;;;;;75.22;32.78;;;;;;;3.25;100.00;102008.38;4965566;28;20034;-76
2022/01/19 11:07:22;;;;;;;70.32;30.75;;;;;;;3.24;100.00;102011.88;4936033;28;20052;-76
2022/01/19 11:10:00;;;;;;;66.88;29.42;;;;;;;3.20;100.00;101987.00;4963963;28;20388;-75
2022/01/19 11:12:30;;;;;;;63.22;30.02;;;;;;;3.23;100.00;101968.72;4968024;28;20502;-76
2022/01/19 11:14:55;;;;;;;70.65;29.88;;;;;;;3.26;100.00;101960.81;4969159;28;20446;-76
2022/01/19 11:17:22;;;;;;;69.68;29.65;;;;;;;3.20;100.00;101948.09;4984043;28;20034;-76
2022/01/19 11:19:49;;;;;;;74.70;29.63;;;;;;;3.21;100.00;101953.22;4971306;28;20038;-76
2022/01/19 11:22:31;;;;;;;67.00;30.77;;;;;;;3.22;100.00;101952.31;4983814;28;20062;-76
2022/01/19 11:25:03;;;;;;;67.88;29.77;;;;;;;3.09;100.00;101958.97;4956131;28;20039;-75
2022/01/19 11:27:45;;;;;;;59.88;27.85;;;;;;;3.10;100.00;101942.50;4975641;28;20529;-76
2022/01/19 11:30:21;;;;;;;68.57;30.70;;;;;;;3.06;100.00;101952.16;4972679;28;20175;-77
2022/01/19 11:33:05;;;;;;;65.53;30.52;;;;;;;3.08;100.00;101937.38;4974375;28;20042;-75
2022/01/19 11:35:34;;;;;;;63.42;30.13;;;;;;;3.02;100.00;101944.59;4977889;28;20119;-76
2022/01/19 11:38:00;;;;;;;71.80;31.55;;;;;;;3.01;100.00;101943.72;4968128;28;20086;-75
2022/01/19 11:40:35;;;;;;;73.00;32.20;;;;;;;3.00;100.00;101934.28;4966309;28;20505;-75
2022/01/19 11:43:25;;;;;;;72.53;30.25;;;;;;;2.97;100.00;101918.03;4969906;28;20067;-76
2022/01/19 11:45:52;;;;;;;68.97;30.40;;;;;;;2.89;100.00;101908.00;4971085;28;20037;-75
2022/01/19 11:48:23;;;;;;;66.95;30.80;;;;;;;2.83;100.00;101900.50;4970608;28;20077;-76
2022/01/19 11:50:50;;;;;;;67.20;30.88;;;;;;;2.81;100.00;101899.75;4964008;28;20488;-77
2022/01/19 11:53:16;;;;;;;70.18;32.83;;;;;;;2.73;100.00;101881.91;4961913;28;20034;-75
2022/01/19 11:56:06;;;;;;;72.95;31.52;;;;;;;2.71;100.00;101873.38;4972483;28;20510;-76
2022/01/19 11:58:32;;;;;;;67.47;31.60;;;;;;;2.72;100.00;101867.28;4970123;28;20089;-76
2022/01/19 12:00:58;;;;;;;68.93;30.27;;;;;;;2.69;100.00;101849.28;4965550;28;20043;-77
2022/01/19 12:03:25;;;;;;;66.68;30.60;;;;;;;2.74;100.00;101844.75;4955820;28;20031;-77
2022/01/19 12:05:54;;;;;;;62.03;30.40;;;;;;;2.74;100.00;101831.78;4975497;28;20093;-76
2022/01/19 12:08:22;;;;;;;63.95;29.10;;;;;;;2.75;100.00;101824.84;4951317;28;20066;-76
2022/01/19 12:10:51;;;;;;;64.63;32.00;;;;;;;2.81;100.00;101814.22;4968159;28;20042;-75
2022/01/19 12:13:40;;;;;;;69.07;30.80;;;;;;;2.83;100.00;101807.22;4985284;28;20619;-76
2022/01/19 12:16:25;;;;;;;59.70;30.17;;;;;;;2.84;100.00;101804.53;4974392;28;20030;-74
2022/01/19 12:19:00;;;;;;;55.25;30.38;;;;;;;2.85;100.00;101806.22;4968444;28;20447;-76
2022/01/19 12:21:29;;;;;;;64.50;31.48;;;;;;;2.89;100.00;101793.97;4974807;28;20065;-76
2022/01/19 12:23:55;;;;;;;63.95;31.95;;;;;;;2.86;100.00;101787.19;4946951;28;20078;-76
2022/01/19 12:26:20;;;;;;;63.78;32.15;;;;;;;2.80;100.00;101771.06;4988005;28;20023;-75
2022/01/19 12:28:49;;;;;;;60.22;32.17;;;;;;;2.89;100.00;101778.44;4970119;28;20139;-77
2022/01/19 12:31:24;;;;;;;65.20;32.53;;;;;;;2.86;100.00;101766.47;4971937;28;20069;-76
2022/01/19 12:34:02;;;;;;;66.72;31.50;;;;;;;2.92;100.00;101767.94;4986554;28;20035;-76
2022/01/19 12:36:46;;;;;;;60.05;30.58;;;;;;;2.96;100.00;101760.81;4969499;28;20059;-75
2022/01/19 12:39:24;;;;;;;63.55;31.30;;;;;;;2.99;100.00;101756.34;4954980;28;20039;-75
2022/01/19 12:41:59;;;;;;;62.90;31.05;;;;;;;2.94;100.00;101753.16;4973319;28;20073;-76
2022/01/19 12:44:34;;;;;;;65.75;33.15;;;;;;;2.91;100.00;101750.69;4972515;28;20206;-76
2022/01/19 12:47:01;;;;;;;63.35;33.30;;;;;;;2.91;100.00;101737.72;4968844;28;20034;-76
2022/01/19 12:49:30;;;;;;;62.95;31.27;;;;;;;2.93;100.00;101743.69;4970543;28;20039;-75
2022/01/19 12:51:55;;;;;;;63.63;33.17;;;;;;;2.96;100.00;101728.00;4955755;28;20529;-77